EBCI - Charleroi/Gosselies, Belgium
Distance de la station: NE 18km
Mise à jour: 26/01/2020 11:50
clair
clair
 Wind from SSO
Vent: SSO 17 km/h
Température: 8°C
Température ressentie: 5°C
Point de rosée: 4°C
Humidité: 76%
Baromètre: 1016 hPa
Résumé: clair
Visibilité: greater than 10 km
2020/01/26 10:50 EBCI 261050Z 20009KT CAVOK 08/04 Q1016 NOSIG
EBFS - Florennes, Belgium
Distance de la station: ESE 31km
Mise à jour: 26/01/2020 11:55
nuageux
nuageux
 Wind from S
Vent: S 17 km/h
Température: 6°C
Température ressentie: 3°C
Point de rosée: 4°C
Humidité: 87%
Baromètre: 1016 hPa
Ciel: nuageux
Visibilité: 9 km
Détails du ciel: partiellement nuageux 2743 m
nuageux 3048 m
nuageux 6706 m
2020/01/26 10:55 EBFS 261055Z AUTO 19009KT 9000 SCT090/// BKN100/// BKN220/// 06/04 Q1016 BLU
EBCV - Chievres, Belgium
Distance de la station: NO 40km
Mise à jour: 25/01/2020 12:25
NOT Current
brouillard, couvert
brouillard, couvert
 Wind from S
Vent: S 7 km/h
Température: 2°C
Température ressentie: 0°C
Point de rosée: 2°C
Humidité: 100%
Baromètre: 1022 hPa
Résumé: brouillard
Ciel: couvert
Visibilité: 0 km
Détails du ciel: couvert 61 m
2020/01/25 11:25 EBCV 251125Z AUTO 18004KT 0400 FG OVC002/// 02/02 Q1022 RED
 
EBBE - Beauvechain, Belgium
Distance de la station: NE 57km
Mise à jour: 26/01/2020 11:55

 Wind from SSO
Vent: SSO 11 km/h
2020/01/26 10:55 EBBE 261055Z AUTO 20006KT //// /// ///// Q////
EBBR - Brussels National, Belgium
Distance de la station: NNE 63km
Mise à jour: 26/01/2020 11:50
clair
clair
 Wind from S
Vent: S 11 km/h
Température: 8°C
Température ressentie: 6°C
Point de rosée: 5°C
Humidité: 82%
Baromètre: 1016 hPa
Résumé: clair
Visibilité: greater than 10 km
2020/01/26 10:50 EBBR 261050Z 19006KT CAVOK 08/05 Q1016 NOSIG
LFQI - Cambrai/Epinoy, France
Distance de la station: O 82km
Mise à jour: 26/01/2020 12:10
unable to load LFQI data RC=
unable to load LFQI data RC=
 
 
LFQQ - Lille/Lesquin, France
Distance de la station: ONO 86km
Mise à jour: 26/01/2020 12:00
nuageux
nuageux
 Wind from S
Vent: S 17 km/h
Température: 7°C
Température ressentie: 4°C
Point de rosée: 5°C
Humidité: 87%
Baromètre: 1015 hPa
Ciel: nuageux
Visibilité: 7 km
Détails du ciel: quelques nuages 274 m
partiellement nuageux 640 m
nuageux 1067 m
2020/01/26 11:00 LFQQ 261100Z AUTO 18009KT 7000 FEW009 SCT021 BKN035 07/05 Q1015 NOSIG
EBLG - Bierset/Liege, Belgium
Distance de la station: ENE 89km
Mise à jour: 26/01/2020 11:50
clair
clair
 Wind from S
Vent: S 20 km/h
Température: 7°C
Température ressentie: 4°C
Point de rosée: 3°C
Humidité: 76%
Baromètre: 1016 hPa
Résumé: clair
Visibilité: greater than 10 km
2020/01/26 10:50 EBLG 261050Z 18011KT CAVOK 07/03 Q1016 NOSIG
EBDT - Schaffen, Belgium
Distance de la station: NE 93km
Mise à jour: 26/01/2020 11:55
nuageux
nuageux
 Wind from S
Vent: S 15 km/h
Température: 8°C
Température ressentie: 5°C
Point de rosée: 5°C
Humidité: 82%
Baromètre: 1016 hPa
Ciel: nuageux
Visibilité: 10 km
Détails du ciel: quelques nuages 2896 m
partiellement nuageux 3353 m
nuageux 3962 m
2020/01/26 10:55 EBDT 261055Z AUTO 18008KT 9999 FEW095/// SCT110/// BKN130/// 08/05 Q1016 BLU
 
EBAW - Antwerp/Deurne, Belgium
Distance de la station: N 96km
Mise à jour: 26/01/2020 11:50
clair
clair
 Wind from SSO
Vent: SSO 11 km/h
Température: 8°C
Température ressentie: 6°C
Point de rosée: 4°C
Humidité: 76%
Baromètre: 1016 hPa
Résumé: clair
Visibilité: greater than 10 km
2020/01/26 10:50 EBAW 261050Z 20006KT 170V250 CAVOK 08/04 Q1016 NOSIG
LFAQ - Bray, France
Distance de la station: OSO 119km
Mise à jour: 26/01/2020 12:00
brume, couvert
brume, couvert
 Wind from SSO
Vent: SSO 15 km/h
Température: 5°C
Température ressentie: 2°C
Point de rosée: 5°C
Humidité: 100%
Baromètre: 1015 hPa
Résumé: brume
Ciel: couvert
Visibilité: 3 km
Détails du ciel: couvert 122 m
2020/01/26 11:00 LFAQ 261100Z AUTO 20008KT 2700 BR OVC004 05/05 Q1015 BECMG 8000 NSW BKN008
LFSR - Reims/Champagne, France
Distance de la station: S 120km
Mise à jour: 16/04/2012 09:00
NOT Current
partiellement nuageux
partiellement nuageux
 Wind from N
Vent: N 17 km/h
Température: 4°C
Température ressentie: 0°C
Point de rosée: 0°C
Humidité: 75%
Baromètre: 1022 hPa
Ciel: partiellement nuageux
Visibilité: 10 km
2012/04/16 07:00 LFSR 160700Z AUTO 01009KT 340V070 9999 NSC 04/00 Q1022
 
EHWO - Woensdrecht, Netherlands
Distance de la station: N 122km
Mise à jour: 26/01/2020 11:55
couvert
couvert
 Wind from SO
Vent: SO 13 km/h
Température: 8°C
Température ressentie: 6°C
Point de rosée: 5°C
Humidité: 82%
Baromètre: 1015 hPa
Ciel: couvert
Visibilité: 10 km
Détails du ciel: quelques nuages 1524 m
couvert 9144 m
2020/01/26 10:55 EHWO 261055Z AUTO 22007KT 160V250 9999 FEW050 OVC300 08/05 Q1015 BLU
EHBK - Zuid-Limburg, Netherlands
Distance de la station: ENE 123km
Mise à jour: 26/01/2020 12:11
unable to load EHBK data RC=
unable to load EHBK data RC=
 
EBBL - Kleine-Brogel, Belgium
Distance de la station: NE 124km
Mise à jour: 26/01/2020 11:55
partiellement nuageux
partiellement nuageux
 Wind from S
Vent: S 11 km/h
Température: 7°C
Température ressentie: 5°C
Point de rosée: 5°C
Humidité: 87%
Baromètre: 1016 hPa
Ciel: partiellement nuageux
Visibilité: 10 km
Détails du ciel: quelques nuages 1585 m
partiellement nuageux 2316 m
2020/01/26 10:55 EBBL 261055Z AUTO 19006KT 9999 FEW052/// SCT076/// 07/05 Q1016 BLU
 
EBLB - Elsenborn, Belgium
Distance de la station: E 135km
Mise à jour: 26/01/2020 11:55
brouillard, couvert
brouillard, couvert
 Wind from SSO
Vent: SSO 7 km/h
Température: 2°C
Température ressentie: 0°C
Point de rosée: 2°C
Humidité: 100%
Baromètre: 1016 hPa
Résumé: brouillard
Ciel: couvert
Visibilité: 0 km
Détails du ciel: couvert 61 m
2020/01/26 10:55 EBLB 261055Z AUTO 21004KT 0350 FG OVC002/// 02/02 Q1016 RED
EBOS - Oostende Airport, Belgium
Distance de la station: NO 136km
Mise à jour: 26/01/2020 11:50
quelques nuages
quelques nuages
 Wind from S
Vent: S 13 km/h
Température: 6°C
Température ressentie: 3°C
Point de rosée: 4°C
Humidité: 87%
Baromètre: 1014 hPa
Ciel: quelques nuages
Visibilité: 6 km
Détails du ciel: quelques nuages 122 m
2020/01/26 10:50 EBOS 261050Z 17007KT 140V200 6000 FEW004 06/04 Q1014 NOSIG
EBFN - Koksijde, Belgium
Distance de la station: NO 140km
Mise à jour: 26/01/2020 12:11
unable to load EBFN data RC=
unable to load EBFN data RC=
 
 
ETNG - Geilenkirchen, Germany
Distance de la station: ENE 142km
Mise à jour: 24/01/2020 19:50
NOT Current
brume, couvert
brume, couvert
 Wind from SE
Vent: SE 2 km/h
Température: 1°C
Point de rosée: -1°C
Humidité: 87%
Baromètre: 1023 hPa
Résumé: brume
Ciel: couvert
Visibilité: 5 km
Détails du ciel: couvert 305 m
2020/01/24 18:50 ETNG 241850Z 13001KT 5000 BR OVC010 01/M01 Q1023
EHGR - Gilze-Rijen, Netherlands
Distance de la station: NNE 143km
Mise à jour: 26/01/2020 11:55
nuageux
nuageux
 Wind from S
Vent: S 15 km/h
Température: 8°C
Température ressentie: 5°C
Point de rosée: 5°C
Humidité: 82%
Baromètre: 1015 hPa
Ciel: nuageux
Visibilité: 10 km
Détails du ciel: nuageux 9754 m
2020/01/26 10:55 EHGR 261055Z AUTO 19008KT 150V230 9999 BKN320 08/05 Q1015 BLU
EHEH - Eindhoven, Netherlands
Distance de la station: NNE 147km
Mise à jour: 26/01/2020 11:55
brume, clair
brume, clair
 Wind from S
Vent: S 9 km/h
Température: 7°C
Température ressentie: 6°C
Point de rosée: 6°C
Humidité: 93%
Baromètre: 1015 hPa
Résumé: brume
Ciel: clair
Visibilité: 9 km
2020/01/26 10:55 EHEH 261055Z AUTO 18005KT 160V220 9000 BR NCD 07/06 Q1015 BLU 17006KT 9000 NSC
 
ELLX - Luxembourg, Luxembourg
Distance de la station: ESE 162km
Mise à jour: 26/01/2020 11:50
brouillard, couvert
brouillard, couvert
 Wind from S
Vent: S 9 km/h
Température: 2°C
Température ressentie: -1°C
Point de rosée: 2°C
Humidité: 100%
Baromètre: 1018 hPa
Résumé: brouillard
Ciel: couvert
Visibilité: 0 km
Détails du ciel: couvert 61 m
2020/01/26 10:50 ELLX 261050Z 17005KT 140V200 0100 R24/0200N FG VV002 02/02 Q1018 NOSIG
EHVK - Volkel, Netherlands
Distance de la station: NE 174km
Mise à jour: 26/01/2020 11:55
brume, couvert
brume, couvert
 Wind from S
Vent: S 11 km/h
Température: 5°C
Température ressentie: 2°C
Point de rosée: 4°C
Humidité: 93%
Baromètre: 1016 hPa
Résumé: brume
Ciel: couvert
Visibilité: 8 km
Détails du ciel: nuageux 1524 m
couvert 1707 m
2020/01/26 10:55 EHVK 261055Z AUTO 19006KT 160V230 8000 BR BKN050 OVC056 05/04 Q1016 BLU
LFOK - Chalons/Vatry, France
Distance de la station: S 174km
Mise à jour: 26/01/2020 12:00
clair
clair
 Wind from SSO
Vent: SSO 17 km/h
Température: 8°C
Température ressentie: 5°C
Point de rosée: 5°C
Humidité: 82%
Baromètre: 1017 hPa
Résumé: clair
Visibilité: greater than 10 km
2020/01/26 11:00 LFOK 261100Z AUTO 20009KT CAVOK 08/05 Q1017 NOSIG
Script from Saratoga-Weather.org